TimeCST,TemperatureF,Dew PointF,Humidity,Sea Level PressureIn,VisibilityMPH,Wind Direction,Wind SpeedMPH,Gust SpeedMPH,PrecipitationIn,Events,Conditions,WindDirDegrees,DateUTC
12:53 AM,1.9,-5.1,72,29.88,4.0,NNW,23.0,-,0.00,Snow,Light Snow,340,2013-02-19 06:53:00
1:07 AM,1.4,-5.8,72,29.80,2.5,NNW,24.2,-,0.00,Snow,Light Snow,340,2013-02-19 07:07:00
2:53 AM,-0.9,-9.0,69,29.94,7.0,NNW,19.6,28.8,0.00,,Overcast,340,2013-02-19 08:53:00
3:32 AM,-2.2,-9.4,71,29.85,2.5,NNW,20.7,31.1,0.00,,Overcast,340,2013-02-19 09:32:00
3:41 AM,-2.2,-11.2,66,29.86,4.0,North,19.6,31.1,0.00,,Overcast,350,2013-02-19 09:41:00
3:53 AM,-2.9,-11.0,68,29.95,3.0,NNW,26.5,33.4,0.00,Snow,Light Snow,340,2013-02-19 09:53:00
3:58 AM,-2.2,-11.2,66,29.86,1.8,NNW,25.3,33.4,0.00,Snow,Light Snow,340,2013-02-19 09:58:00
4:08 AM,-4.0,-11.2,71,29.86,3.0,NNW,25.3,33.4,0.00,,Overcast,340,2013-02-19 10:08:00
4:53 AM,-4.0,-13.0,65,29.97,3.0,NNW,23.0,32.2,0.00,,Haze,340,2013-02-19 10:53:00
5:22 AM,-5.8,-14.8,65,29.89,2.5,NNW,26.5,34.5,0.00,,Mostly Cloudy,340,2013-02-19 11:22:00
5:31 AM,-5.8,-14.8,65,29.90,5.0,NNW,20.7,29.9,0.00,,Haze,340,2013-02-19 11:31:00
5:48 AM,-5.8,-14.8,65,29.91,3.0,NNW,24.2,32.2,0.00,,Mostly Cloudy,340,2013-02-19 11:48:00
5:53 AM,-6.0,-14.1,68,30.02,3.0,NNW,21.9,31.1,0.00,,Haze,340,2013-02-19 11:53:00
6:21 AM,-7.6,-14.8,71,29.92,4.0,NNW,21.9,31.1,N/A,,Haze,340,2013-02-19 12:21:00
6:53 AM,-7.1,-15.0,68,30.04,4.0,NNW,24.2,29.9,N/A,,Haze,340,2013-02-19 12:53:00
7:10 AM,-7.6,-14.8,71,29.94,4.0,NNW,21.9,32.2,0.00,,Scattered Clouds,340,2013-02-19 13:10:00
7:25 AM,-7.6,-14.8,71,29.95,2.5,NNW,26.5,31.1,0.00,,Haze,340,2013-02-19 13:25:00
7:41 AM,-7.6,-14.8,71,29.95,4.0,NNW,21.9,-,0.00,,Haze,340,2013-02-19 13:41:00
7:53 AM,-7.1,-15.0,68,30.08,3.0,NNW,23.0,28.8,0.00,,Haze,330,2013-02-19 13:53:00
8:02 AM,-7.6,-14.8,71,29.97,2.5,NNW,23.0,32.2,N/A,,Haze,340,2013-02-19 14:02:00
8:21 AM,-5.8,-14.8,65,29.97,3.0,NNW,25.3,32.2,0.00,,Haze,330,2013-02-19 14:21:00
8:29 AM,-5.8,-14.8,65,29.98,1.8,NNW,26.5,33.4,0.00,,Scattered Clouds,330,2013-02-19 14:29:00
8:37 AM,-5.8,-14.8,65,29.98,1.8,NNW,25.3,34.5,0.00,,Mostly Cloudy,340,2013-02-19 14:37:00
8:44 AM,-5.8,-14.8,65,29.98,2.0,NNW,24.2,31.1,0.00,,Haze,330,2013-02-19 14:44:00
8:53 AM,-6.0,-14.1,68,30.10,1.2,NNW,25.3,34.5,0.00,,Mostly Cloudy,330,2013-02-19 14:53:00
9:08 AM,-5.8,-14.8,65,29.98,2.5,NNW,23.0,32.2,0.00,,Haze,340,2013-02-19 15:08:00
9:21 AM,-5.8,-14.8,65,29.99,3.0,NNW,24.2,31.1,0.00,,Haze,330,2013-02-19 15:21:00
9:26 AM,-5.8,-14.8,65,29.99,1.8,NNW,26.5,33.4,0.00,,Mostly Cloudy,330,2013-02-19 15:26:00
9:36 AM,-5.8,-14.8,65,29.99,2.0,NNW,24.2,31.1,0.00,,Scattered Clouds,330,2013-02-19 15:36:00
9:53 AM,-4.0,-14.1,62,30.12,4.0,NNW,18.4,-,0.00,,Haze,340,2013-02-19 15:53:00
10:53 AM,-2.9,-13.0,62,30.14,2.5,NNW,21.9,31.1,0.00,,Clear,340,2013-02-19 16:53:00
11:01 AM,-2.2,-13.0,60,30.02,6.0,North,19.6,28.8,0.00,,Haze,350,2013-02-19 17:01:00
12:53 PM,1.0,-9.9,60,30.17,3.0,NNW,20.7,32.2,N/A,Snow,Blowing Snow,330,2013-02-19 18:53:00
1:53 PM,3.9,-9.0,55,30.18,10.0,NNW,25.3,-,N/A,,Clear,340,2013-02-19 19:53:00
2:53 PM,5.0,-8.0,55,30.22,9.0,NNW,21.9,27.6,N/A,,Clear,340,2013-02-19 20:53:00
3:53 PM,5.0,-7.1,58,30.25,9.0,NNW,21.9,28.8,N/A,,Clear,330,2013-02-19 21:53:00
4:53 PM,5.0,-8.0,55,30.28,10.0,NNW,18.4,26.5,N/A,,Clear,340,2013-02-19 22:53:00
6:42 PM,3.2,-7.6,61,30.22,10.0,NNW,17.3,-,N/A,,Mostly Cloudy,340,2013-02-20 00:42:00
6:53 PM,3.0,-7.1,63,30.35,10.0,NNW,17.3,25.3,N/A,,Overcast,340,2013-02-20 00:53:00
7:53 PM,1.9,-8.0,63,30.38,10.0,NNW,18.4,-,N/A,,Scattered Clouds,340,2013-02-20 01:53:00
8:53 PM,1.0,-8.0,66,30.39,10.0,NNW,12.7,-,N/A,,Clear,340,2013-02-20 02:53:00
9:53 PM,-0.0,-9.0,66,30.42,10.0,NNW,13.8,-,N/A,,Clear,340,2013-02-20 03:53:00
10:53 PM,-0.9,-9.0,69,30.43,10.0,North,10.4,-,N/A,,Clear,350,2013-02-20 04:53:00
11:53 PM,-2.0,-9.9,69,30.45,10.0,North,12.7,-,N/A,,Clear,350,2013-02-20 05:53:00